Portada
METAR-TAF:

METAR-TAF

Aeropuertos :

Funchal, Madeira, Portugal

Aeropuerto de Madeira

latitud: 32-41-52N, longitud: 016-46-28W, altitud: 59 m

Observación

El informe se hizo hace 29 minutos, a las 19:00 UTC
Viento 17 kt del noreste
Temperatura 24°C
Humedad 69%
Presión 1020 hPa
Visibilidad 10 km o más
Escasas nubes a una altura de 1600 ft

METAR: LPMA 171900Z 05017KT 9999 FEW016 24/18 Q1020

Hora: 20:29 (19:29 UTC)

Pronóstico

El informe se hizo hace 2 horas y 29 minutos, a las 17:00 UTC
Pronóstico válido del 17 a las 18 UTC al 18 a las 18 UTC
Viento 15 kt del norte
Visibilidad 10 km o más
Escasas nubes a una altura de 1500 ft
Temporalmente
del 17 a las 18 UTC al 18 a las 18 UTC
Viento 20 kt del norte con ráfagas de 30 kt

TAF: LPMA 171700Z 1718/1818 01015KT 9999 FEW015 TEMPO 1718/1818 01020G30KT

Observaciones y pronósticos meteorológicos de más de 4000 aeropuertos (mensajes METAR y TAF).

Los puntos amarillos y rojos representan las estaciones disponibles.

Ponga el ratón en el punto deseado para ver el nombre de la estación.

Haga clic para ver las observaciones y los pronósticos meteorológicos.

Para cambiar el mapa : haga clic en los botones verdes con una cruz de color negro para hacer un zoom, en el botón verde con un guión para alejar o en las flechas verdes para mapas adyacentes.


METAR-TAF: